createdAt,value
2023-04-13T00:00:44.061Z,5.60
2023-04-13T00:03:12.704Z,4.50
2023-04-13T00:05:40.220Z,6.60
2023-04-13T00:08:08.080Z,5.00
2023-04-13T00:10:37.098Z,7.20
2023-04-13T00:13:05.172Z,7.30
2023-04-13T00:15:40.886Z,6.60
2023-04-13T00:18:08.886Z,7.20
2023-04-13T00:20:35.840Z,6.10
2023-04-13T00:23:03.049Z,7.20
2023-04-13T00:25:30.623Z,5.90
2023-04-13T00:27:57.492Z,7.10
2023-04-13T00:30:24.683Z,7.10
2023-04-13T00:32:52.035Z,7.10
2023-04-13T00:35:25.285Z,7.10
2023-04-13T00:37:53.395Z,3.80
2023-04-13T00:40:20.341Z,6.90
2023-04-13T00:42:49.124Z,4.70
2023-04-13T00:45:18.333Z,5.90
2023-04-13T00:47:47.496Z,4.80
2023-04-13T00:50:18.005Z,6.90
2023-04-13T00:52:45.976Z,6.90
2023-04-13T00:55:14.604Z,6.40
2023-04-13T00:57:41.924Z,9.80
2023-04-13T01:00:09.977Z,6.80
2023-04-13T01:02:41.909Z,3.70
2023-04-13T01:05:12.428Z,6.80
2023-04-13T01:07:44.833Z,6.80
2023-04-13T01:10:22.366Z,5.80
2023-04-13T01:13:10.203Z,6.70
2023-04-13T01:15:40.763Z,5.30
2023-04-13T01:18:09.928Z,6.60
2023-04-13T01:20:38.698Z,6.50
2023-04-13T01:23:09.849Z,5.20
2023-04-13T01:25:50.780Z,3.60
2023-04-13T01:28:19.552Z,6.40
2023-04-13T01:30:47.517Z,6.40
2023-04-13T01:33:14.872Z,3.30
2023-04-13T01:35:42.199Z,6.30
2023-04-13T01:38:09.966Z,4.50
2023-04-13T01:40:40.938Z,4.60
2023-04-13T01:43:08.684Z,3.10
2023-04-13T01:45:46.333Z,6.20
2023-04-13T01:48:34.244Z,6.20
2023-04-13T01:51:08.904Z,4.30
2023-04-13T01:53:40.004Z,4.70
2023-04-13T01:56:07.300Z,6.20
2023-04-13T01:58:35.441Z,6.20
2023-04-13T02:01:07.621Z,4.00
2023-04-13T02:03:36.161Z,6.20
2023-04-13T02:06:03.260Z,4.40
2023-04-13T02:08:34.812Z,6.20
2023-04-13T02:11:02.122Z,3.70
2023-04-13T02:13:29.588Z,6.10
2023-04-13T02:15:57.812Z,3.40
2023-04-13T02:18:25.665Z,6.00
2023-04-13T02:21:03.317Z,6.00
2023-04-13T02:23:32.013Z,3.30
2023-04-13T02:25:58.708Z,4.80
2023-04-13T02:28:27.720Z,5.80
2023-04-13T02:30:54.836Z,5.80
2023-04-13T02:33:21.702Z,4.70
2023-04-13T02:35:49.371Z,4.90
2023-04-13T02:38:16.917Z,7.50
2023-04-13T02:40:44.051Z,5.40
2023-04-13T02:43:10.746Z,5.60
2023-04-13T02:45:37.512Z,5.60
2023-04-13T02:48:04.923Z,5.60
2023-04-13T02:50:31.608Z,4.80
2023-04-13T02:52:58.367Z,3.10
2023-04-13T02:55:25.079Z,5.50
2023-04-13T02:57:52.209Z,4.90
2023-04-13T03:00:19.249Z,4.00
2023-04-13T03:02:47.099Z,3.20
2023-04-13T03:05:14.259Z,4.50
2023-04-13T03:07:40.951Z,4.90
2023-04-13T03:10:08.891Z,5.60
2023-04-13T03:12:35.679Z,5.50
2023-04-13T03:15:04.852Z,5.40
2023-04-13T03:17:31.559Z,4.80
2023-04-13T03:19:58.736Z,4.20
2023-04-13T03:22:26.036Z,3.20
2023-04-13T03:24:53.049Z,5.20
2023-04-13T03:27:21.457Z,3.40
2023-04-13T03:29:48.201Z,4.30
2023-04-13T03:32:15.001Z,4.40
2023-04-13T03:34:44.131Z,5.10
2023-04-13T03:37:11.812Z,5.00
2023-04-13T03:39:39.880Z,5.00
2023-04-13T03:42:06.718Z,5.00
2023-04-13T03:44:33.798Z,3.30
2023-04-13T03:47:01.271Z,4.40
2023-04-13T03:49:28.399Z,4.90
2023-04-13T03:51:55.837Z,2.80
2023-04-13T03:54:22.736Z,4.90
2023-04-13T03:56:51.368Z,5.00
2023-04-13T03:59:18.126Z,2.90
2023-04-13T04:01:45.403Z,4.90
2023-04-13T04:04:12.321Z,4.90
2023-04-13T04:06:39.118Z,4.90
2023-04-13T04:09:05.966Z,4.40
2023-04-13T04:11:32.646Z,4.90
2023-04-13T04:13:59.717Z,4.90
2023-04-13T04:16:26.654Z,4.90
2023-04-13T04:18:54.102Z,4.90
2023-04-13T04:21:21.840Z,4.90
2023-04-13T04:23:48.803Z,4.80
2023-04-13T04:26:15.587Z,4.80
2023-04-13T04:28:42.298Z,4.80
2023-04-13T04:31:10.759Z,4.90
2023-04-13T04:33:38.879Z,4.90
2023-04-13T04:36:09.872Z,3.30
2023-04-13T04:38:36.717Z,2.20
2023-04-13T04:41:03.507Z,4.80
2023-04-13T04:43:30.455Z,4.80
2023-04-13T04:45:58.054Z,4.80
2023-04-13T04:48:27.019Z,4.70
2023-04-13T04:50:56.078Z,3.40
2023-04-13T04:53:23.851Z,3.00
2023-04-13T04:55:51.407Z,4.60
2023-04-13T04:58:19.626Z,4.60
2023-04-13T05:00:47.953Z,4.50
2023-04-13T05:03:14.893Z,2.00
2023-04-13T05:05:42.486Z,4.70
2023-04-13T05:08:09.418Z,1.90
2023-04-13T05:10:36.188Z,4.90
2023-04-13T05:13:02.983Z,2.90
2023-04-13T05:15:29.663Z,2.50
2023-04-13T05:17:56.753Z,2.20
2023-04-13T05:20:23.555Z,5.10
2023-04-13T05:22:50.260Z,4.50
2023-04-13T05:25:17.401Z,5.20
2023-04-13T05:27:44.355Z,3.50
2023-04-13T05:30:11.998Z,3.00
2023-04-13T05:32:38.887Z,5.20
2023-04-13T05:35:06.551Z,4.40
2023-04-13T05:37:33.350Z,2.90
2023-04-13T05:40:00.033Z,5.90
2023-04-13T05:42:26.821Z,6.00
2023-04-13T05:44:53.691Z,6.20
2023-04-13T05:47:24.023Z,4.30
2023-04-13T05:49:52.534Z,6.30
2023-04-13T05:52:19.448Z,6.40
2023-04-13T05:54:46.385Z,6.50
2023-04-13T05:57:13.135Z,6.50
2023-04-13T05:59:40.164Z,6.50
2023-04-13T06:02:07.027Z,6.50
2023-04-13T06:04:34.924Z,6.60
2023-04-13T06:07:01.972Z,4.50
2023-04-13T06:09:29.143Z,5.30
2023-04-13T06:11:55.911Z,6.60
2023-04-13T06:14:23.487Z,6.60
2023-04-13T06:16:50.320Z,4.30
2023-04-13T06:19:17.355Z,5.80
2023-04-13T06:21:44.208Z,6.80
2023-04-13T06:24:10.931Z,6.80
2023-04-13T06:26:37.675Z,6.60
2023-04-13T06:29:04.454Z,6.40
2023-04-13T06:31:31.781Z,5.00
2023-04-13T06:33:58.875Z,4.20
2023-04-13T06:36:25.834Z,8.10
2023-04-13T06:38:52.568Z,5.80
2023-04-13T06:41:19.363Z,6.10
2023-04-13T06:43:46.316Z,5.20
2023-04-13T06:46:14.517Z,5.40
2023-04-13T06:48:41.592Z,7.50
2023-04-13T06:51:08.384Z,7.50
2023-04-13T06:53:35.094Z,7.60
2023-04-13T06:56:01.936Z,7.10
2023-04-13T06:58:29.395Z,7.80
2023-04-13T07:00:56.178Z,7.90
2023-04-13T07:03:23.092Z,8.00
2023-04-13T07:05:50.339Z,8.10
2023-04-13T07:08:19.168Z,8.20
2023-04-13T07:10:47.057Z,8.20
2023-04-13T07:13:13.816Z,6.30
2023-04-13T07:15:42.704Z,6.40
2023-04-13T07:18:09.506Z,7.80
2023-04-13T07:20:36.404Z,8.00
2023-04-13T07:23:03.163Z,7.00
2023-04-13T07:25:29.902Z,8.90
2023-04-13T07:27:57.785Z,7.40
2023-04-13T07:30:24.526Z,7.30
2023-04-13T07:32:51.228Z,8.20
2023-04-13T07:35:18.116Z,9.10
2023-04-13T07:37:46.518Z,8.70
2023-04-13T07:40:13.633Z,8.80
2023-04-13T07:42:40.644Z,8.70
2023-04-13T07:45:08.131Z,9.00
2023-04-13T07:47:34.874Z,8.90
2023-04-13T07:50:01.752Z,7.70
2023-04-13T07:52:28.792Z,8.60
2023-04-13T07:54:55.575Z,9.00
2023-04-13T07:57:22.324Z,9.10
2023-04-13T07:59:49.321Z,6.80
2023-04-13T08:02:17.969Z,8.90
2023-04-13T08:04:44.892Z,7.70
2023-04-13T08:07:11.755Z,7.10
2023-04-13T08:09:41.796Z,8.20
2023-04-13T08:12:10.145Z,6.60
2023-04-13T08:14:37.252Z,9.00
2023-04-13T08:17:06.014Z,8.90
2023-04-13T08:19:33.827Z,9.00
2023-04-13T08:22:00.508Z,6.60
2023-04-13T08:24:27.681Z,9.30
2023-04-13T08:26:55.109Z,9.40
2023-04-13T08:29:24.107Z,9.50
2023-04-13T08:31:51.416Z,9.60
2023-04-13T08:34:18.520Z,9.50
2023-04-13T08:36:46.245Z,9.50
2023-04-13T08:39:13.584Z,9.50
2023-04-13T08:41:44.021Z,7.80
2023-04-13T08:44:13.329Z,9.60
2023-04-13T08:46:43.888Z,9.90
2023-04-13T08:49:12.247Z,10.30
2023-04-13T08:51:39.523Z,10.20
2023-04-13T08:54:07.110Z,10.30
2023-04-13T08:56:45.497Z,10.40
2023-04-13T08:59:15.663Z,10.30
2023-04-13T09:01:45.437Z,10.40
2023-04-13T09:04:14.136Z,10.60
2023-04-13T09:06:43.119Z,10.90
2023-04-13T09:09:14.345Z,11.30
2023-04-13T09:11:42.858Z,11.50
2023-04-13T09:14:10.020Z,11.10
2023-04-13T09:16:41.174Z,11.60
2023-04-13T09:19:08.610Z,11.10
2023-04-13T09:21:39.739Z,11.50
2023-04-13T09:24:07.354Z,11.50
2023-04-13T09:26:44.168Z,9.50
2023-04-13T09:29:16.696Z,11.80
2023-04-13T09:31:45.719Z,11.70
2023-04-13T09:34:13.899Z,11.60
2023-04-13T09:36:53.580Z,11.70
2023-04-13T09:39:27.904Z,11.70
2023-04-13T09:41:55.381Z,11.60
2023-04-13T09:44:30.977Z,10.50
2023-04-13T09:46:59.114Z,11.40
2023-04-13T09:49:26.797Z,11.40
2023-04-13T09:51:54.475Z,11.80
2023-04-13T09:54:22.729Z,12.00
2023-04-13T09:56:56.153Z,12.00
2023-04-13T09:59:23.547Z,12.00
2023-04-13T10:01:51.903Z,11.80
2023-04-13T10:04:19.157Z,11.50
2023-04-13T10:06:48.412Z,11.20
2023-04-13T10:09:15.528Z,11.20
2023-04-13T10:11:45.993Z,9.00
2023-04-13T10:14:24.995Z,11.10
2023-04-13T10:17:25.807Z,11.60
2023-04-13T10:19:58.754Z,11.90
2023-04-13T10:22:25.684Z,11.30
2023-04-13T10:24:53.018Z,12.50
2023-04-13T10:27:21.873Z,12.50
2023-04-13T10:29:49.894Z,12.50
2023-04-13T10:32:22.288Z,10.00
2023-04-13T10:34:49.526Z,11.90
2023-04-13T10:37:19.434Z,11.80
2023-04-13T10:39:46.802Z,9.70
2023-04-13T10:42:14.513Z,12.00
2023-04-13T10:44:52.440Z,12.40
2023-04-13T10:47:21.461Z,12.70
2023-04-13T10:49:49.854Z,13.10
2023-04-13T10:52:17.036Z,11.00
2023-04-13T10:54:44.942Z,14.50
2023-04-13T10:57:12.609Z,14.70
2023-04-13T10:59:57.066Z,14.90
2023-04-13T11:02:30.242Z,15.10
2023-04-13T11:04:57.413Z,14.80
2023-04-13T11:07:26.076Z,15.50
2023-04-13T11:10:03.782Z,15.60
2023-04-13T11:12:31.107Z,15.70
2023-04-13T11:14:57.881Z,15.90
2023-04-13T11:17:24.765Z,15.20
2023-04-13T11:19:53.252Z,15.90
2023-04-13T11:22:23.445Z,15.90
2023-04-13T11:24:51.507Z,15.40
2023-04-13T11:27:20.223Z,15.10
2023-04-13T11:29:56.841Z,14.60
2023-04-13T11:32:24.068Z,13.90
2023-04-13T11:34:51.309Z,11.50
2023-04-13T11:37:19.410Z,12.60
2023-04-13T11:39:46.473Z,11.90
2023-04-13T11:42:13.429Z,11.70
2023-04-13T11:44:40.295Z,11.90
2023-04-13T11:47:08.908Z,12.70
2023-04-13T11:49:36.057Z,15.00
2023-04-13T11:52:03.369Z,15.80
2023-04-13T11:54:31.069Z,17.70
2023-04-13T11:56:57.894Z,19.20
2023-04-13T11:59:25.527Z,19.90
2023-04-13T12:02:01.610Z,18.60
2023-04-13T12:04:38.038Z,19.20
2023-04-13T12:07:11.364Z,18.50
2023-04-13T12:12:50.383Z,13.40
2023-04-13T12:15:17.101Z,15.30
2023-04-13T12:17:59.947Z,14.40
2023-04-13T12:20:39.618Z,13.90
2023-04-13T12:23:24.617Z,13.40
2023-04-13T12:25:58.876Z,13.30
2023-04-13T12:28:35.259Z,12.70
2023-04-13T12:31:02.738Z,12.00
2023-04-13T12:33:30.145Z,9.20
2023-04-13T12:35:56.952Z,11.30
2023-04-13T12:38:24.508Z,11.30
2023-04-13T12:41:00.148Z,9.00
2023-04-13T12:43:28.180Z,10.80
2023-04-13T12:45:55.661Z,10.40
2023-04-13T12:48:22.815Z,10.00
2023-04-13T12:50:49.579Z,9.90
2023-04-13T12:53:16.377Z,9.80
2023-04-13T12:55:43.626Z,9.80
2023-04-13T12:58:11.185Z,9.80
2023-04-13T13:00:37.911Z,9.40
2023-04-13T13:03:13.413Z,10.70
2023-04-13T13:05:41.932Z,11.70
2023-04-13T13:08:09.143Z,12.80
2023-04-13T13:10:37.021Z,13.70
2023-04-13T13:13:04.303Z,14.40
2023-04-13T13:15:32.359Z,12.80
2023-04-13T13:18:04.034Z,14.40
2023-04-13T13:20:31.005Z,16.40
2023-04-13T13:22:57.985Z,16.60
2023-04-13T13:25:25.072Z,16.50
2023-04-13T13:28:10.357Z,16.30
2023-04-13T13:30:38.972Z,16.10
2023-04-13T13:33:05.905Z,15.70
2023-04-13T13:35:33.296Z,15.80
2023-04-13T13:38:01.365Z,15.80
2023-04-13T13:40:28.275Z,15.90
2023-04-13T13:42:55.064Z,15.50
2023-04-13T13:45:22.297Z,15.20
2023-04-13T13:47:53.421Z,15.00
2023-04-13T13:50:21.796Z,15.00
2023-04-13T13:53:02.433Z,13.20
2023-04-13T13:55:30.689Z,14.70
2023-04-13T13:57:57.744Z,14.70
2023-04-13T14:00:25.731Z,14.70
2023-04-13T14:02:52.732Z,14.70
2023-04-13T14:05:21.754Z,14.10
2023-04-13T14:07:48.791Z,14.40
2023-04-13T14:10:15.617Z,14.20
2023-04-13T14:12:47.472Z,13.30
2023-04-13T14:15:17.061Z,13.90
2023-04-13T14:17:45.540Z,13.70
2023-04-13T14:20:17.198Z,13.70
2023-04-13T14:22:43.925Z,13.70
2023-04-13T14:25:10.715Z,13.80
2023-04-13T14:27:38.060Z,13.70
2023-04-13T14:30:05.494Z,13.90
2023-04-13T14:32:32.491Z,14.10
2023-04-13T14:35:00.494Z,14.30
2023-04-13T14:37:27.825Z,14.50
2023-04-13T14:39:55.346Z,14.50
2023-04-13T14:42:24.204Z,12.20
2023-04-13T14:44:52.278Z,15.10
2023-04-13T14:47:19.587Z,15.40
2023-04-13T14:49:47.206Z,16.10
2023-04-13T14:52:14.456Z,16.50
2023-04-13T14:54:41.897Z,16.60
2023-04-13T14:57:09.233Z,16.30
2023-04-13T14:59:35.920Z,16.00
2023-04-13T15:02:02.683Z,15.70
2023-04-13T15:04:29.744Z,15.40
2023-04-13T15:06:56.715Z,13.30
2023-04-13T15:09:23.443Z,14.70
2023-04-13T15:11:50.517Z,12.30
2023-04-13T15:14:17.333Z,14.30
2023-04-13T15:16:44.073Z,14.20
2023-04-13T15:19:11.005Z,13.90
2023-04-13T15:21:37.689Z,13.70
2023-04-13T15:24:04.709Z,13.60
2023-04-13T15:26:31.427Z,13.50
2023-04-13T15:28:58.360Z,11.20
2023-04-13T15:31:25.345Z,13.10
2023-04-13T15:33:52.044Z,12.80
2023-04-13T15:36:19.065Z,12.90
2023-04-13T15:38:45.875Z,13.20
2023-04-13T15:41:12.601Z,13.50
2023-04-13T15:43:41.154Z,14.10
2023-04-13T15:46:08.999Z,14.70
2023-04-13T15:48:35.791Z,15.80
2023-04-13T15:51:02.565Z,15.80
2023-04-13T15:53:29.346Z,13.50
2023-04-13T15:55:56.224Z,15.00
2023-04-13T15:58:22.939Z,14.80
2023-04-13T16:01:00.376Z,13.70
2023-04-13T16:03:27.227Z,14.40
2023-04-13T16:05:53.995Z,14.10
2023-04-13T16:08:20.722Z,13.90
2023-04-13T16:10:47.430Z,13.70
2023-04-13T16:13:18.870Z,13.40
2023-04-13T16:15:51.330Z,13.20
2023-04-13T16:18:18.592Z,13.00
2023-04-13T16:20:46.688Z,12.90
2023-04-13T16:23:15.538Z,12.80
2023-04-13T16:25:42.299Z,12.50
2023-04-13T16:28:10.194Z,12.50
2023-04-13T16:30:37.414Z,12.30
2023-04-13T16:33:05.672Z,11.80
2023-04-13T16:35:32.694Z,11.80
2023-04-13T16:37:59.380Z,11.60
2023-04-13T16:40:26.292Z,11.50
2023-04-13T16:42:52.982Z,11.50
2023-04-13T16:45:19.909Z,11.50
2023-04-13T16:47:46.637Z,10.60
2023-04-13T16:50:13.610Z,11.50
2023-04-13T16:52:40.593Z,11.40
2023-04-13T16:55:08.747Z,10.50
2023-04-13T16:57:35.519Z,10.50
2023-04-13T17:00:07.151Z,11.30
2023-04-13T17:02:35.721Z,11.20
2023-04-13T17:05:02.611Z,13.10
2023-04-13T17:07:29.388Z,9.60
2023-04-13T17:09:56.153Z,11.10
2023-04-13T17:12:23.282Z,11.00
2023-04-13T17:14:50.019Z,9.50
2023-04-13T17:17:16.916Z,8.20
2023-04-13T17:19:43.696Z,10.80
2023-04-13T17:22:10.539Z,8.10
2023-04-13T17:24:37.460Z,10.50
2023-04-13T17:27:04.497Z,9.60
2023-04-13T17:29:33.537Z,8.90
2023-04-13T17:32:00.462Z,10.20
2023-04-13T17:34:27.452Z,8.00
2023-04-13T17:36:54.169Z,10.10
2023-04-13T17:39:20.911Z,9.40
2023-04-13T17:41:47.712Z,9.90
2023-04-13T17:44:15.478Z,9.80
2023-04-13T17:46:42.478Z,12.50
2023-04-13T17:49:09.201Z,7.10
2023-04-13T17:51:35.888Z,9.70
2023-04-13T17:54:07.694Z,9.60
2023-04-13T17:56:34.739Z,9.50
2023-04-13T17:59:02.368Z,7.10
2023-04-13T18:01:29.282Z,9.40
2023-04-13T18:03:56.187Z,8.80
2023-04-13T18:06:23.012Z,9.20
2023-04-13T18:08:49.689Z,11.80
2023-04-13T18:11:16.429Z,9.00
2023-04-13T18:13:43.164Z,6.60
2023-04-13T18:16:11.698Z,8.90
2023-04-13T18:18:40.251Z,8.90
2023-04-13T18:21:06.957Z,8.20
2023-04-13T18:23:33.685Z,8.90
2023-04-13T18:26:01.767Z,8.90
2023-04-13T18:28:29.765Z,6.00
2023-04-13T18:31:00.629Z,7.50
2023-04-13T18:33:28.197Z,6.40
2023-04-13T18:35:55.078Z,8.80
2023-04-13T18:38:23.577Z,8.80
2023-04-13T18:40:50.600Z,8.80
2023-04-13T18:43:17.743Z,8.70
2023-04-13T18:45:44.902Z,8.60
2023-04-13T18:48:11.853Z,5.90
2023-04-13T18:50:38.984Z,11.40
2023-04-13T18:53:06.102Z,8.50
2023-04-13T18:55:32.866Z,8.40
2023-04-13T18:57:59.595Z,7.40
2023-04-13T19:00:26.447Z,8.40
2023-04-13T19:02:53.403Z,8.40
2023-04-13T19:05:20.564Z,6.60
2023-04-13T19:07:58.361Z,8.30
2023-04-13T19:10:26.094Z,9.00
2023-04-13T19:12:52.850Z,8.30
2023-04-13T19:15:20.051Z,8.30
2023-04-13T19:17:47.305Z,5.90
2023-04-13T19:20:14.448Z,7.60
2023-04-13T19:22:41.153Z,8.10
2023-04-13T19:25:14.098Z,8.10
2023-04-13T19:27:43.053Z,8.00
2023-04-13T19:30:10.364Z,7.30
2023-04-13T19:32:38.574Z,6.40
2023-04-13T19:35:06.338Z,7.90
2023-04-13T19:37:34.347Z,7.90
2023-04-13T19:40:01.166Z,7.90
2023-04-13T19:42:29.010Z,8.00
2023-04-13T19:44:56.044Z,8.00
2023-04-13T19:47:22.744Z,8.10
2023-04-13T19:49:49.523Z,8.10
2023-04-13T19:52:16.337Z,8.20
2023-04-13T19:54:43.859Z,8.20
2023-04-13T19:57:11.012Z,8.20
2023-04-13T19:59:38.947Z,8.20
2023-04-13T20:02:06.866Z,8.20
2023-04-13T20:04:33.957Z,8.30
2023-04-13T20:07:01.221Z,6.00
2023-04-13T20:09:28.182Z,8.20
2023-04-13T20:11:54.974Z,8.10
2023-04-13T20:14:21.926Z,8.10
2023-04-13T20:16:48.966Z,8.10
2023-04-13T20:19:15.957Z,8.00
2023-04-13T20:21:46.552Z,7.50
2023-04-13T20:24:13.593Z,7.90
2023-04-13T20:26:40.363Z,7.90
2023-04-13T20:29:07.069Z,7.90
2023-04-13T20:31:34.556Z,7.90
2023-04-13T20:34:03.161Z,7.90
2023-04-13T20:36:30.960Z,7.90
2023-04-13T20:38:59.584Z,7.80
2023-04-13T20:41:29.734Z,7.80
2023-04-13T20:43:56.471Z,7.70
2023-04-13T20:46:25.156Z,7.70
2023-04-13T20:48:52.477Z,7.60
2023-04-13T20:51:22.918Z,7.60
2023-04-13T20:53:50.113Z,4.80
2023-04-13T20:56:18.980Z,7.40
2023-04-13T20:58:46.571Z,7.30
2023-04-13T21:01:13.346Z,7.20
2023-04-13T21:03:40.475Z,6.80
2023-04-13T21:06:07.707Z,6.60
2023-04-13T21:08:34.465Z,6.80
2023-04-13T21:11:01.095Z,6.70
2023-04-13T21:13:28.056Z,6.50
2023-04-13T21:15:54.820Z,6.40
2023-04-13T21:18:21.482Z,6.30
2023-04-13T21:20:48.610Z,5.60
2023-04-13T21:23:15.472Z,6.10
2023-04-13T21:25:44.342Z,6.10
2023-04-13T21:28:11.340Z,6.10
2023-04-13T21:30:38.035Z,6.00
2023-04-13T21:33:04.796Z,6.00
2023-04-13T21:35:31.466Z,3.10
2023-04-13T21:37:58.191Z,5.90
2023-04-13T21:40:24.966Z,5.10
2023-04-13T21:42:51.777Z,5.70
2023-04-13T21:45:18.598Z,5.70
2023-04-13T21:47:47.026Z,5.60
2023-04-13T21:50:13.820Z,5.60
2023-04-13T21:52:40.583Z,5.60
2023-04-13T21:55:07.565Z,5.60
2023-04-13T21:57:34.325Z,6.50
2023-04-13T22:00:01.009Z,5.60
2023-04-13T22:02:27.853Z,5.60
2023-04-13T22:04:54.703Z,3.80
2023-04-13T22:07:31.574Z,5.60
2023-04-13T22:10:06.610Z,5.50
2023-04-13T22:12:33.259Z,5.50
2023-04-13T22:14:59.955Z,5.50
2023-04-13T22:17:26.662Z,5.50
2023-04-13T22:19:53.471Z,3.50
2023-04-13T22:22:20.311Z,5.60
2023-04-13T22:24:47.140Z,5.50
2023-04-13T22:27:13.848Z,5.60
2023-04-13T22:29:40.825Z,5.50
2023-04-13T22:32:07.532Z,5.50
2023-04-13T22:34:34.628Z,5.50
2023-04-13T22:37:01.514Z,5.40
2023-04-13T22:39:30.707Z,5.40
2023-04-13T22:41:58.703Z,5.40
2023-04-13T22:44:25.550Z,3.40
2023-04-13T22:46:54.274Z,5.30
2023-04-13T22:49:21.056Z,5.30
2023-04-13T22:51:47.802Z,4.60
2023-04-13T22:54:14.547Z,3.80
2023-04-13T22:56:41.198Z,5.30
2023-04-13T22:59:08.065Z,5.30
2023-04-13T23:01:34.765Z,5.30
2023-04-13T23:04:01.955Z,5.40
2023-04-13T23:06:28.987Z,5.40
2023-04-13T23:08:57.141Z,5.40
2023-04-13T23:11:23.945Z,5.40
2023-04-13T23:13:54.078Z,5.40
2023-04-13T23:16:21.079Z,5.40
2023-04-13T23:18:47.973Z,5.40
2023-04-13T23:21:14.718Z,5.50
2023-04-13T23:23:41.432Z,5.50
2023-04-13T23:26:08.159Z,5.50
2023-04-13T23:28:34.889Z,5.50
2023-04-13T23:31:04.611Z,5.50
2023-04-13T23:33:33.229Z,5.50
2023-04-13T23:36:00.022Z,4.70
2023-04-13T23:38:26.970Z,5.40
2023-04-13T23:40:54.850Z,5.30
2023-04-13T23:43:21.999Z,5.30
2023-04-13T23:45:51.407Z,5.20
2023-04-13T23:48:19.494Z,5.20
2023-04-13T23:50:46.342Z,5.20
2023-04-13T23:53:13.453Z,4.80
2023-04-13T23:55:40.859Z,5.20
2023-04-13T23:58:08.402Z,5.20
